PWSweather.com
Personal Weather Stations
Station Observations
INORDPAS37
Bondues, BonduesFR 59910

BonduesBonduesFR 59910

Lat: 50.7, Lon: 3.09

Elevation: 66

Station Type: NetAtmo

High Low Average
Temperature 87.8°F31.0°C 60.4°F15.8°C 74.9°F23.8°C
Dew Point 63.3°F17.4°C 45.5°F7.5°C 54.9°F12.7°C
Winds 3.1 mph 5.0 kmh Calm Calm 1.0 mph ESE1.6 kmh ESE
Wind Gusts 8.1 mph13.0 kmh -- 3.0 mph4.8 kmh
Humidity 65% 40% 53%
Pressure 30.31 in1026.4 mb 30.16 in1021.3 mb -
Precipitation 0.00 in0.0 mm - -
Hour Temp Dew Point Humidity Winds Wind Gusts Pressure Precip Precip Rate Daily Precip Total
12:03 AM 66.2°F19.0°C 48.4°F9.1°C 56% 0.7 mph S1.1 kmh S 1.3 mph2.1 kmh 30.31 in1026.4 mb 0.00 in0.0 mm 0.00 in0.0 mm 0.00 in0.0 mm
12:23 AM 65.5°F18.6°C 48.0°F8.9°C 57% 0.7 mph SE1.1 kmh SE 1.3 mph2.1 kmh 30.31 in1026.4 mb 0.00 in0.0 mm 0.00 in0.0 mm 0.00 in0.0 mm
12:43 AM 64.8°F18.2°C 47.3°F8.5°C 57% 0.6 mph SSE1.0 kmh SSE -- 30.31 in1026.4 mb 0.00 in0.0 mm 0.00 in0.0 mm 0.00 in0.0 mm
01:04 AM 64.0°F17.8°C 47.1°F8.4°C 58% Calm Calm 1.3 mph2.1 kmh 30.31 in1026.4 mb 0.00 in0.0 mm 0.00 in0.0 mm 0.00 in0.0 mm
01:23 AM 63.5°F17.5°C 46.6°F8.1°C 58% Calm Calm 0.7 mph1.1 kmh 30.31 in1026.4 mb 0.00 in0.0 mm 0.00 in0.0 mm 0.00 in0.0 mm
01:44 AM 63.0°F17.2°C 46.6°F8.1°C 59% 0.6 mph NW1.0 kmh NW -- 30.31 in1026.4 mb 0.00 in0.0 mm 0.00 in0.0 mm 0.00 in0.0 mm
02:04 AM 62.4°F16.9°C 46.0°F7.8°C 59% 0.7 mph W1.1 kmh W 1.3 mph2.1 kmh 30.31 in1026.4 mb 0.00 in0.0 mm 0.00 in0.0 mm 0.00 in0.0 mm
02:24 AM 61.9°F16.6°C 45.9°F7.7°C 60% 0.7 mph SE1.1 kmh SE 1.3 mph2.1 kmh 30.30 in1026.1 mb 0.00 in0.0 mm 0.00 in0.0 mm 0.00 in0.0 mm
02:44 AM 61.3°F16.3°C 45.9°F7.7°C 61% 0.6 mph SE1.0 kmh SE -- 30.30 in1026.1 mb 0.00 in0.0 mm 0.00 in0.0 mm 0.00 in0.0 mm
03:05 AM 61.0°F16.1°C 45.5°F7.5°C 61% Calm Calm 0.7 mph1.1 kmh 30.30 in1026.1 mb 0.00 in0.0 mm 0.00 in0.0 mm 0.00 in0.0 mm
03:25 AM 61.0°F16.1°C 45.9°F7.7°C 62% 1.8 mph SE2.9 kmh SE 3.8 mph6.1 kmh 30.29 in1025.7 mb 0.00 in0.0 mm 0.00 in0.0 mm 0.00 in0.0 mm
03:45 AM 61.7°F16.5°C 46.9°F8.3°C 63% 0.6 mph E1.0 kmh E -- 30.29 in1025.7 mb 0.00 in0.0 mm 0.00 in0.0 mm 0.00 in0.0 mm
03:55 AM 61.9°F16.6°C 47.1°F8.4°C 63% 0.7 mph NNE1.1 kmh NNE 1.8 mph2.9 kmh 30.30 in1026.1 mb 0.00 in0.0 mm 0.00 in0.0 mm 0.00 in0.0 mm
04:15 AM 61.5°F16.4°C 46.8°F8.2°C 63% 0.7 mph NE1.1 kmh NE 1.3 mph2.1 kmh 30.29 in1025.7 mb 0.00 in0.0 mm 0.00 in0.0 mm 0.00 in0.0 mm
04:35 AM 61.2°F16.2°C 46.4°F8.0°C 63% Calm Calm 0.7 mph1.1 kmh 30.30 in1026.1 mb 0.00 in0.0 mm 0.00 in0.0 mm 0.00 in0.0 mm
04:51 AM 61.2°F16.2°C 46.4°F8.0°C 63% Calm Calm -- 30.30 in1026.1 mb 0.00 in0.0 mm 0.00 in0.0 mm 0.00 in0.0 mm
04:56 AM 60.6°F15.9°C 46.4°F8.0°C 64% 0.7 mph SE1.1 kmh SE 1.8 mph2.9 kmh 30.30 in1026.1 mb 0.00 in0.0 mm 0.00 in0.0 mm 0.00 in0.0 mm
05:16 AM 60.4°F15.8°C 46.2°F7.9°C 64% 0.7 mph SE1.1 kmh SE 1.3 mph2.1 kmh 30.30 in1026.1 mb 0.00 in0.0 mm 0.00 in0.0 mm 0.00 in0.0 mm
05:36 AM 60.4°F15.8°C 46.2°F7.9°C 64% 0.7 mph W1.1 kmh W 1.3 mph2.1 kmh 30.30 in1026.1 mb 0.00 in0.0 mm 0.00 in0.0 mm 0.00 in0.0 mm
05:51 AM 60.4°F15.8°C 46.2°F7.9°C 64% 0.6 mph W1.0 kmh W -- 30.30 in1026.1 mb 0.00 in0.0 mm 0.00 in0.0 mm 0.00 in0.0 mm
05:56 AM 60.6°F15.9°C 46.8°F8.2°C 65% Calm Calm 0.7 mph1.1 kmh 30.30 in1026.1 mb 0.00 in0.0 mm 0.00 in0.0 mm 0.00 in0.0 mm
06:16 AM 62.8°F17.1°C 48.7°F9.3°C 65% Calm Calm 1.3 mph2.1 kmh 30.29 in1025.7 mb 0.00 in0.0 mm 0.00 in0.0 mm 0.00 in0.0 mm
06:37 AM 64.9°F18.3°C 50.9°F10.5°C 65% 0.6 mph S1.0 kmh S -- 30.29 in1025.7 mb 0.00 in0.0 mm 0.00 in0.0 mm 0.00 in0.0 mm
06:56 AM 68.0°F20.0°C 53.2°F11.8°C 64% 1.3 mph S2.1 kmh S 2.5 mph4.0 kmh 30.29 in1025.7 mb 0.00 in0.0 mm 0.00 in0.0 mm 0.00 in0.0 mm
07:17 AM 70.2°F21.2°C 54.5°F12.5°C 62% 1.3 mph SE2.1 kmh SE 3.8 mph6.1 kmh 30.30 in1026.1 mb 0.00 in0.0 mm 0.00 in0.0 mm 0.00 in0.0 mm
07:37 AM 72.0°F22.2°C 55.4°F13.0°C 60% 1.2 mph E1.9 kmh E -- 30.30 in1026.1 mb 0.00 in0.0 mm 0.00 in0.0 mm 0.00 in0.0 mm
07:57 AM 73.4°F23.0°C 55.9°F13.3°C 58% 1.8 mph ESE2.9 kmh ESE 4.3 mph6.9 kmh 30.30 in1026.1 mb 0.00 in0.0 mm 0.00 in0.0 mm 0.00 in0.0 mm
08:18 AM 75.0°F23.9°C 57.4°F14.1°C 58% 1.8 mph SE2.9 kmh SE 3.8 mph6.1 kmh 30.30 in1026.1 mb 0.00 in0.0 mm 0.00 in0.0 mm 0.00 in0.0 mm
08:37 AM 75.9°F24.4°C 57.4°F14.1°C 56% 1.2 mph ESE1.9 kmh ESE -- 30.29 in1025.7 mb 0.00 in0.0 mm 0.00 in0.0 mm 0.00 in0.0 mm
08:58 AM 77.0°F25.0°C 57.6°F14.2°C 54% 2.5 mph E4.0 kmh E 5.6 mph9.0 kmh 30.29 in1025.7 mb 0.00 in0.0 mm 0.00 in0.0 mm 0.00 in0.0 mm
09:18 AM 77.9°F25.5°C 57.9°F14.4°C 53% 1.8 mph ESE2.9 kmh ESE 4.3 mph6.9 kmh 30.29 in1025.7 mb 0.00 in0.0 mm 0.00 in0.0 mm 0.00 in0.0 mm
09:38 AM 78.8°F26.0°C 58.3°F14.6°C 52% 1.9 mph SE3.1 kmh SE -- 30.29 in1025.7 mb 0.00 in0.0 mm 0.00 in0.0 mm 0.00 in0.0 mm
09:58 AM 80.1°F26.7°C 59.5°F15.3°C 52% 1.8 mph ESE2.9 kmh ESE 3.8 mph6.1 kmh 30.28 in1025.4 mb 0.00 in0.0 mm 0.00 in0.0 mm 0.00 in0.0 mm
10:18 AM 81.0°F27.2°C 59.9°F15.5°C 51% 3.1 mph SE5.0 kmh SE 5.6 mph9.0 kmh 30.28 in1025.4 mb 0.00 in0.0 mm 0.00 in0.0 mm 0.00 in0.0 mm
10:38 AM 81.5°F27.5°C 59.9°F15.5°C 50% 1.9 mph ENE3.1 kmh ENE -- 30.28 in1025.4 mb 0.00 in0.0 mm 0.00 in0.0 mm 0.00 in0.0 mm
10:57 AM 82.8°F28.2°C 60.6°F15.9°C 49% 1.8 mph ESE2.9 kmh ESE 5.6 mph9.0 kmh 30.27 in1025.1 mb 0.00 in0.0 mm 0.00 in0.0 mm 0.00 in0.0 mm
11:18 AM 82.6°F28.1°C 60.4°F15.8°C 49% 3.1 mph E5.0 kmh E 7.4 mph11.9 kmh 30.27 in1025.1 mb 0.00 in0.0 mm 0.00 in0.0 mm 0.00 in0.0 mm
11:37 AM 82.0°F27.8°C 60.1°F15.6°C 49% 1.2 mph ENE1.9 kmh ENE -- 30.27 in1025.1 mb 0.00 in0.0 mm 0.00 in0.0 mm 0.00 in0.0 mm
11:57 AM 81.7°F27.6°C 59.7°F15.4°C 49% 2.5 mph E4.0 kmh E 6.9 mph11.1 kmh 30.26 in1024.7 mb 0.00 in0.0 mm 0.00 in0.0 mm 0.00 in0.0 mm
12:18 PM 82.9°F28.3°C 60.8°F16.0°C 49% 1.8 mph NE2.9 kmh NE 5.6 mph9.0 kmh 30.26 in1024.7 mb 0.00 in0.0 mm 0.00 in0.0 mm 0.00 in0.0 mm
12:37 PM 83.1°F28.4°C 60.6°F15.9°C 48% 2.5 mph NE4.0 kmh NE -- 30.25 in1024.4 mb 0.00 in0.0 mm 0.00 in0.0 mm 0.00 in0.0 mm
12:58 PM 83.3°F28.5°C 60.8°F16.0°C 48% 2.5 mph NE4.0 kmh NE 8.1 mph13.0 kmh 30.25 in1024.4 mb 0.00 in0.0 mm 0.00 in0.0 mm 0.00 in0.0 mm
01:21 PM 83.5°F28.6°C 60.4°F15.8°C 47% 2.5 mph ENE4.0 kmh ENE 7.4 mph11.9 kmh 30.24 in1024.0 mb 0.00 in0.0 mm 0.00 in0.0 mm 0.00 in0.0 mm
01:41 PM 85.3°F29.6°C 62.1°F16.7°C 47% 2.5 mph NE4.0 kmh NE -- 30.24 in1024.0 mb 0.00 in0.0 mm 0.00 in0.0 mm 0.00 in0.0 mm
02:01 PM 85.6°F29.8°C 62.1°F16.7°C 46% 1.8 mph NNW2.9 kmh NNW 7.4 mph11.9 kmh 30.23 in1023.7 mb 0.00 in0.0 mm 0.00 in0.0 mm 0.00 in0.0 mm
02:21 PM 85.6°F29.8°C 62.1°F16.7°C 46% 1.3 mph E2.1 kmh E 3.8 mph6.1 kmh 30.22 in1023.4 mb 0.00 in0.0 mm 0.00 in0.0 mm 0.00 in0.0 mm
02:41 PM 87.1°F30.6°C 63.3°F17.4°C 46% 2.5 mph N4.0 kmh N -- 30.22 in1023.4 mb 0.00 in0.0 mm 0.00 in0.0 mm 0.00 in0.0 mm
03:01 PM 87.6°F30.9°C 63.3°F17.4°C 45% 2.5 mph E4.0 kmh E 7.4 mph11.9 kmh 30.22 in1023.4 mb 0.00 in0.0 mm 0.00 in0.0 mm 0.00 in0.0 mm
03:21 PM 87.8°F31.0°C 63.1°F17.3°C 44% 2.5 mph ENE4.0 kmh ENE 7.4 mph11.9 kmh 30.21 in1023.0 mb 0.00 in0.0 mm 0.00 in0.0 mm 0.00 in0.0 mm
03:41 PM 87.8°F31.0°C 63.1°F17.3°C 44% 1.9 mph NE3.1 kmh NE -- 30.21 in1023.0 mb 0.00 in0.0 mm 0.00 in0.0 mm 0.00 in0.0 mm
04:02 PM 87.8°F31.0°C 62.6°F17.0°C 43% 1.3 mph NNE2.1 kmh NNE 5.6 mph9.0 kmh 30.20 in1022.7 mb 0.00 in0.0 mm 0.00 in0.0 mm 0.00 in0.0 mm
04:21 PM 87.4°F30.8°C 62.2°F16.8°C 43% 1.8 mph NE2.9 kmh NE 4.9 mph7.9 kmh 30.20 in1022.7 mb 0.00 in0.0 mm 0.00 in0.0 mm 0.00 in0.0 mm
04:42 PM 87.3°F30.7°C 61.7°F16.5°C 42% 1.9 mph ENE3.1 kmh ENE -- 30.20 in1022.7 mb 0.00 in0.0 mm 0.00 in0.0 mm 0.00 in0.0 mm
05:01 PM 87.4°F30.8°C 61.9°F16.6°C 42% 2.5 mph E4.0 kmh E 5.6 mph9.0 kmh 30.19 in1022.4 mb 0.00 in0.0 mm 0.00 in0.0 mm 0.00 in0.0 mm
05:22 PM 86.9°F30.5°C 61.0°F16.1°C 41% 3.1 mph ESE5.0 kmh ESE 6.9 mph11.1 kmh 30.19 in1022.4 mb 0.00 in0.0 mm 0.00 in0.0 mm 0.00 in0.0 mm
05:41 PM 86.2°F30.1°C 59.9°F15.5°C 40% 3.1 mph ESE5.0 kmh ESE -- 30.18 in1022.0 mb 0.00 in0.0 mm 0.00 in0.0 mm 0.00 in0.0 mm
06:01 PM 85.3°F29.6°C 59.0°F15.0°C 40% 3.1 mph E5.0 kmh E 6.9 mph11.1 kmh 30.17 in1021.7 mb 0.00 in0.0 mm 0.00 in0.0 mm 0.00 in0.0 mm
06:22 PM 84.9°F29.4°C 59.2°F15.1°C 41% 3.1 mph E5.0 kmh E 4.9 mph7.9 kmh 30.17 in1021.7 mb 0.00 in0.0 mm 0.00 in0.0 mm 0.00 in0.0 mm
06:42 PM 83.7°F28.7°C 57.9°F14.4°C 41% 1.9 mph E3.1 kmh E -- 30.17 in1021.7 mb 0.00 in0.0 mm 0.00 in0.0 mm 0.00 in0.0 mm
07:03 PM 82.6°F28.1°C 57.4°F14.1°C 42% 1.3 mph ENE2.1 kmh ENE 4.3 mph6.9 kmh 30.17 in1021.7 mb 0.00 in0.0 mm 0.00 in0.0 mm 0.00 in0.0 mm
07:22 PM 81.9°F27.7°C 57.2°F14.0°C 43% 3.1 mph ENE5.0 kmh ENE 6.9 mph11.1 kmh 30.17 in1021.7 mb 0.00 in0.0 mm 0.00 in0.0 mm 0.00 in0.0 mm
07:43 PM 81.3°F27.4°C 57.2°F14.0°C 44% 1.2 mph E1.9 kmh E -- 30.17 in1021.7 mb 0.00 in0.0 mm 0.00 in0.0 mm 0.00 in0.0 mm
08:02 PM 80.8°F27.1°C 57.0°F13.9°C 45% 1.3 mph ESE2.1 kmh ESE 2.5 mph4.0 kmh 30.16 in1021.3 mb 0.00 in0.0 mm 0.00 in0.0 mm 0.00 in0.0 mm
08:23 PM 80.1°F26.7°C 56.8°F13.8°C 46% 1.8 mph E2.9 kmh E 3.8 mph6.1 kmh 30.16 in1021.3 mb 0.00 in0.0 mm 0.00 in0.0 mm 0.00 in0.0 mm
08:43 PM 79.3°F26.3°C 56.3°F13.5°C 46% 1.2 mph ESE1.9 kmh ESE -- 30.17 in1021.7 mb 0.00 in0.0 mm 0.00 in0.0 mm 0.00 in0.0 mm
09:02 PM 78.6°F25.9°C 55.6°F13.1°C 46% 0.7 mph N1.1 kmh N 2.5 mph4.0 kmh 30.17 in1021.7 mb 0.00 in0.0 mm 0.00 in0.0 mm 0.00 in0.0 mm
09:23 PM 77.5°F25.3°C 55.4°F13.0°C 48% 1.3 mph NE2.1 kmh NE 3.8 mph6.1 kmh 30.17 in1021.7 mb 0.00 in0.0 mm 0.00 in0.0 mm 0.00 in0.0 mm
09:42 PM 76.3°F24.6°C 54.7°F12.6°C 49% 0.6 mph NE1.0 kmh NE -- 30.17 in1021.7 mb 0.00 in0.0 mm 0.00 in0.0 mm 0.00 in0.0 mm
10:03 PM 75.2°F24.0°C 54.1°F12.3°C 50% 1.3 mph NE2.1 kmh NE 3.8 mph6.1 kmh 30.18 in1022.0 mb 0.00 in0.0 mm 0.00 in0.0 mm 0.00 in0.0 mm
10:23 PM 74.1°F23.4°C 54.0°F12.2°C 52% 1.3 mph NE2.1 kmh NE 3.1 mph5.0 kmh 30.17 in1021.7 mb 0.00 in0.0 mm 0.00 in0.0 mm 0.00 in0.0 mm
10:43 PM 73.2°F22.9°C 53.2°F11.8°C 52% 0.6 mph N1.0 kmh N -- 30.18 in1022.0 mb 0.00 in0.0 mm 0.00 in0.0 mm 0.00 in0.0 mm
11:03 PM 72.5°F22.5°C 52.9°F11.6°C 53% 1.3 mph NE2.1 kmh NE 3.8 mph6.1 kmh 30.18 in1022.0 mb 0.00 in0.0 mm 0.00 in0.0 mm 0.00 in0.0 mm
11:23 PM 71.8°F22.1°C 52.7°F11.5°C 54% 0.7 mph NW1.1 kmh NW 1.8 mph2.9 kmh 30.18 in1022.0 mb 0.00 in0.0 mm 0.00 in0.0 mm 0.00 in0.0 mm
11:43 PM 71.1°F21.7°C 52.3°F11.3°C 55% 0.6 mph NNW1.0 kmh NNW -- 30.18 in1022.0 mb 0.00 in0.0 mm 0.00 in0.0 mm 0.00 in0.0 mm